Aérodrome :
LOGIN :

S'inscrire | Disclaimer

   EN    FR    IT 

 










Légende :    VFR   VFR Marginal   IFR   IFR Intensif   IFR Très Intensif
Visi : 
Plafond : 
>= 8 km
>= 3000ft
5 à 8 km
1000 à 3000 ft
1500m à 5 km
500 à 1000 ft
800 à 1500m
200 à 500 ft
< 800m
< 200 ft
Symboles :   Orages  Brouillard  Fortes neiges  Fortes précipitations  Vent > 20 kt
SIGMETs :   Divers  Orages  Givrage  Turbulence  Onde Orograph.  Cendres Volcan.







- Altitude de l'aérodrome : 24 ft
- Code IATA : SGD


EKSB - Sonderborg

DERNIER METAR :
  • 211921Z 27008KT 230V310 CAVOK 11/08 Q1012 RESHRA

METARs EXPIRÉS :
  • 211850Z 27010KT 240V300 9999 FEW025 11/08 Q1012 RESHRA
  • 211823Z 27011KT 230V290 9999 FEW025CB SCT050 11/08 Q1012 RESHRA
  • 211750Z 27010KT 240V300 9999 -SHRA FEW022TCU SCT040 11/08 Q1012
  • 211726Z 31020G36KT 9999 -SHRA FEW022TCU BKN035 12/07 Q1012
  • 211650Z 29012KT 250V320 9999 FEW030TCU SCT050 14/08 Q1012
  • 211620Z 28015G27KT 250V310 9999 FEW025TCU SCT050 14/08 Q1012 RE RASH

TAF TAF EKSB
Valide du 21 à 18h jusqu'au 21 à 22h UTC


211751Z 2118/2122 28015KT 9999 BKN025
TEMPO 2118/2119 28018G32KT SHRA SCT020CB
TEMPO 2119/2122 SHRA SCT020CB
Pas de NOTAMs connus pour ce terrain.



MET'MAP, la Météo Aéronautique d'un coup d'oeil ! - Copyright ORBIFLY Décembre 2007 - Disclaimer

ORBIFLY MET'MAP TEAM :

Programmation & Développement : Alexandra Zaïnal
Conception & Développement : Baudouin d'Aumeries
Co-Programmation & Développement : Marc-Olivier Méhu
Soutien technique & logistique : Manuel Goepfert

Contact : metmap@orbifly.com




SOURCES & CREDITS :

   NOAA